Time;durP1;ratioP1;P1;durP2;ratioP2;P2;SDS_P1;SDS_P2;PMS_P1;PMS_P2;Temp;Humidity;BMP_temperature;BMP_pressure;BME280_temperature;BME280_humidity;BME280_pressure;Samples;Min_cycle;Max_cycle;Signal;HPM_P1;HPM_P2
2022/11/26 00:02:21;;;;;;;94.53;26.65;;;;;;;6.37;100.00;101651.09;7396943;19;20516;-70
2022/11/26 00:04:50;;;;;;;85.53;27.77;;;;;;;6.38;100.00;101651.94;7397060;19;20036;-70
2022/11/26 00:07:25;;;;;;;88.45;26.73;;;;;;;6.40;100.00;101655.47;7399039;19;20480;-70
2022/11/26 00:09:54;;;;;;;94.32;28.90;;;;;;;6.40;100.00;101655.47;7397327;19;20035;-70
2022/11/26 00:12:25;;;;;;;84.68;28.00;;;;;;;6.41;100.00;101662.41;7396834;19;20073;-70
2022/11/26 00:14:53;;;;;;;100.45;30.02;;;;;;;6.41;100.00;101657.19;7396918;19;20035;-69
2022/11/26 00:17:23;;;;;;;98.38;29.40;;;;;;;6.41;100.00;101668.50;7399085;19;20018;-69
2022/11/26 00:19:51;;;;;;;98.05;30.13;;;;;;;6.41;100.00;101668.50;7396339;19;20028;-69
2022/11/26 00:22:27;;;;;;;108.22;30.73;;;;;;;6.42;100.00;101669.38;7396638;19;20035;-69
2022/11/26 00:25:02;;;;;;;101.55;31.83;;;;;;;6.42;100.00;101671.97;7398442;19;20346;-69
2022/11/26 00:27:31;;;;;;;99.93;31.25;;;;;;;6.43;100.00;101677.22;7399077;19;20010;-68
2022/11/26 00:29:59;;;;;;;105.80;32.97;;;;;;;6.43;100.00;101673.72;7398204;19;20019;-69
2022/11/26 00:32:28;;;;;;;109.68;32.35;;;;;;;6.45;100.00;101679.84;7398475;19;20015;-69
2022/11/26 00:34:56;;;;;;;118.35;33.72;;;;;;;6.43;100.00;101676.34;7396463;19;20335;-70
2022/11/26 00:37:30;;;;;;;117.25;34.15;;;;;;;6.45;100.00;101678.09;7397974;19;20501;-68
2022/11/26 00:39:59;;;;;;;111.90;33.92;;;;;;;6.43;100.00;101678.94;7398694;19;20018;-67
2022/11/26 00:42:27;;;;;;;123.63;35.72;;;;;;;6.47;100.00;101691.13;7398114;19;20015;-67
2022/11/26 00:44:56;;;;;;;105.95;33.90;;;;;;;6.48;100.00;101692.91;7398076;19;20031;-68
2022/11/26 00:47:24;;;;;;;118.38;35.97;;;;;;;6.49;100.00;101699.84;7396120;19;20014;-69
2022/11/26 00:49:53;;;;;;;114.53;34.67;;;;;;;6.49;100.00;101702.47;7397020;19;20639;-69
2022/11/26 00:52:34;;;;;;;120.60;37.35;;;;;;;6.50;100.00;101701.63;7395368;19;20484;-69
2022/11/26 00:55:08;;;;;;;114.97;34.97;;;;;;;6.50;100.00;101707.69;7396260;19;20383;-69
2022/11/26 00:57:37;;;;;;;110.93;34.15;;;;;;;6.51;100.00;101706.84;7397448;19;20027;-69
2022/11/26 01:00:18;;;;;;;116.57;34.58;;;;;;;6.51;100.00;101721.63;7397060;19;20407;-69
2022/11/26 01:02:48;;;;;;;117.13;36.00;;;;;;;6.51;100.00;101721.63;7398031;19;20022;-69
2022/11/26 01:05:17;;;;;;;111.72;35.63;;;;;;;6.53;100.00;101722.50;7395932;19;20010;-70
2022/11/26 01:07:49;;;;;;;118.57;35.92;;;;;;;6.52;100.00;101720.72;7397492;19;20045;-69
2022/11/26 01:10:20;;;;;;;121.00;36.38;;;;;;;6.53;100.00;101722.50;7397652;19;20031;-71
2022/11/26 01:12:49;;;;;;;113.40;35.58;;;;;;;6.55;100.00;101722.53;7397878;19;20074;-70
2022/11/26 01:15:19;;;;;;;116.65;35.58;;;;;;;6.56;100.00;101724.25;7395802;19;20044;-70
2022/11/26 01:17:48;;;;;;;111.15;34.55;;;;;;;6.56;100.00;101719.03;7397210;19;20023;-69
2022/11/26 01:20:24;;;;;;;117.32;36.85;;;;;;;6.56;100.00;101719.94;7396862;19;20027;-69
2022/11/26 01:22:56;;;;;;;120.05;35.53;;;;;;;6.57;100.00;101726.00;7395741;19;20035;-69
2022/11/26 01:25:27;;;;;;;109.93;36.53;;;;;;;6.56;100.00;101726.88;7395587;19;20014;-69
2022/11/26 01:27:56;;;;;;;115.80;37.83;;;;;;;6.57;100.00;101732.13;7395305;19;20387;-69
2022/11/26 01:30:26;;;;;;;104.10;34.47;;;;;;;6.57;100.00;101737.34;7395041;19;20032;-69
2022/11/26 01:32:55;;;;;;;114.95;37.53;;;;;;;6.57;100.00;101737.34;7397335;19;20077;-69
2022/11/26 01:35:24;;;;;;;119.20;36.35;;;;;;;6.57;100.00;101739.94;7395137;19;20014;-68
2022/11/26 01:37:56;;;;;;;119.78;36.55;;;;;;;6.57;100.00;101745.16;7396008;19;20383;-69
2022/11/26 01:40:52;;;;;;;115.43;35.13;;;;;;;6.58;100.00;101746.00;7395190;19;20423;-69
2022/11/26 01:43:27;;;;;;;96.45;33.20;;;;;;;6.57;100.00;101750.38;7395533;19;20027;-69
2022/11/26 01:45:56;;;;;;;114.68;35.00;;;;;;;6.57;100.00;101758.19;7396854;19;20029;-69
2022/11/26 01:48:31;;;;;;;110.75;35.33;;;;;;;6.58;100.00;101759.91;7394619;19;20019;-69
2022/11/26 01:51:02;;;;;;;114.55;36.33;;;;;;;6.58;100.00;101759.06;7395189;19;20018;-69
2022/11/26 01:53:42;;;;;;;114.85;36.85;;;;;;;6.57;100.00;101762.50;7395807;19;20015;-69
2022/11/26 01:56:29;;;;;;;119.35;36.95;;;;;;;6.59;100.00;101766.03;7395755;19;20014;-69
2022/11/26 01:59:02;;;;;;;118.38;36.83;;;;;;;6.59;100.00;101769.50;7394398;19;20347;-69
2022/11/26 02:01:31;;;;;;;112.30;38.03;;;;;;;6.59;100.00;101764.28;7392383;19;20022;-69
2022/11/26 02:04:09;;;;;;;125.90;34.55;;;;;;;6.59;100.00;101760.81;7394579;19;20027;-69
2022/11/26 02:06:38;;;;;;;118.53;38.28;;;;;;;6.58;100.00;101765.13;7394551;19;20014;-69
2022/11/26 02:09:11;;;;;;;122.53;38.65;;;;;;;6.59;100.00;101766.88;7395697;19;20022;-71
2022/11/26 02:11:40;;;;;;;136.95;38.78;;;;;;;6.59;100.00;101766.88;7394104;19;20010;-69
2022/11/26 02:14:13;;;;;;;118.18;37.47;;;;;;;6.59;100.00;101766.03;7395615;19;20022;-69
2022/11/26 02:17:20;;;;;;;120.37;38.47;;;;;;;6.61;100.00;101764.28;7394280;19;20010;-68
2022/11/26 02:20:23;;;;;;;131.90;37.95;;;;;;;6.61;100.00;101777.31;7393291;19;20464;-69
2022/11/26 02:23:29;;;;;;;129.15;38.78;;;;;;;6.61;100.00;101778.22;7393623;19;20391;-69
2022/11/26 02:26:34;;;;;;;125.65;39.17;;;;;;;6.61;100.00;101777.31;7394779;19;20014;-68
2022/11/26 02:29:14;;;;;;;118.63;37.40;;;;;;;6.62;100.00;101784.31;7395655;19;20015;-68
2022/11/26 02:31:50;;;;;;;126.47;38.08;;;;;;;6.62;100.00;101794.72;7393407;19;20031;-69
2022/11/26 02:34:26;;;;;;;125.60;38.15;;;;;;;6.64;100.00;101787.81;7394285;19;20038;-69
2022/11/26 02:36:59;;;;;;;131.68;40.53;;;;;;;6.64;100.00;101799.09;7395486;19;20011;-68
2022/11/26 02:39:29;;;;;;;131.15;38.90;;;;;;;6.65;100.00;101794.78;7394504;19;20014;-70
2022/11/26 02:42:01;;;;;;;116.72;38.65;;;;;;;6.64;100.00;101799.09;7392917;19;20070;-70
2022/11/26 02:44:35;;;;;;;131.95;40.08;;;;;;;6.66;100.00;101802.63;7394326;19;20031;-70
2022/11/26 02:47:10;;;;;;;129.07;39.97;;;;;;;6.66;100.00;101807.84;7392457;19;20015;-70
2022/11/26 02:49:41;;;;;;;134.65;40.58;;;;;;;6.68;100.00;101805.22;7393011;19;20018;-69
2022/11/26 02:52:12;;;;;;;139.30;42.92;;;;;;;6.66;100.00;101807.84;7392798;19;20018;-70
2022/11/26 02:54:42;;;;;;;139.23;41.67;;;;;;;6.67;100.00;101812.19;7393535;19;20019;-69
2022/11/26 02:57:16;;;;;;;135.60;40.85;;;;;;;6.68;100.00;101813.06;7394486;19;20043;-70
2022/11/26 02:59:44;;;;;;;131.10;41.08;;;;;;;6.68;100.00;101808.75;7392718;19;20031;-68
2022/11/26 03:02:20;;;;;;;134.57;40.58;;;;;;;6.70;100.00;101806.13;7392010;19;20384;-69
2022/11/26 03:04:52;;;;;;;149.70;42.70;;;;;;;6.70;100.00;101811.34;7392661;19;20010;-68
2022/11/26 03:07:21;;;;;;;134.95;40.70;;;;;;;6.70;100.00;101813.97;7394215;19;20018;-69
2022/11/26 03:09:53;;;;;;;133.35;39.78;;;;;;;6.72;100.00;101819.19;7394099;19;20018;-69
2022/11/26 03:12:22;;;;;;;142.25;43.25;;;;;;;6.72;100.00;101814.84;7396093;19;20040;-71
2022/11/26 03:14:51;;;;;;;142.98;40.88;;;;;;;6.74;100.00;101823.56;7400501;19;20078;-71
2022/11/26 03:17:22;;;;;;;147.27;40.70;;;;;;;6.76;100.00;101824.47;7400846;19;20479;-71
2022/11/26 03:19:51;;;;;;;142.63;41.40;;;;;;;6.82;100.00;101828.88;7401615;19;20014;-71
2022/11/26 03:22:19;;;;;;;155.68;43.95;;;;;;;6.83;100.00;101831.47;7398104;19;20444;-73
2022/11/26 03:24:48;;;;;;;144.25;42.45;;;;;;;6.82;100.00;101831.47;7400951;19;20027;-72
2022/11/26 03:27:16;;;;;;;132.95;42.17;;;;;;;6.85;100.00;101835.00;7400982;19;20014;-72
2022/11/26 03:29:45;;;;;;;134.73;42.10;;;;;;;6.87;100.00;101839.38;7397943;19;20027;-70
2022/11/26 03:32:13;;;;;;;137.98;40.83;;;;;;;6.85;100.00;101852.41;7398062;19;20022;-69
2022/11/26 03:34:44;;;;;;;129.50;38.70;;;;;;;6.84;100.00;101842.81;7400102;19;20074;-69
2022/11/26 03:37:13;;;;;;;118.35;38.10;;;;;;;6.83;100.00;101846.28;7401123;19;20023;-69
2022/11/26 03:39:42;;;;;;;129.52;39.58;;;;;;;6.82;100.00;101847.13;7398024;19;20015;-69
2022/11/26 03:42:10;;;;;;;124.53;39.75;;;;;;;6.82;100.00;101845.41;7398358;19;20022;-70
2022/11/26 03:44:39;;;;;;;126.82;38.58;;;;;;;6.82;100.00;101842.81;7397988;19;20018;-69
2022/11/26 03:47:08;;;;;;;132.65;40.60;;;;;;;6.83;100.00;101844.53;7400073;19;20023;-69
2022/11/26 03:49:36;;;;;;;124.03;38.70;;;;;;;6.82;100.00;101852.34;7399929;19;20022;-69
2022/11/26 03:52:07;;;;;;;130.35;39.85;;;;;;;6.83;100.00;101848.88;7397993;19;20019;-69
2022/11/26 03:54:36;;;;;;;130.90;38.72;;;;;;;6.83;100.00;101860.19;7399868;19;20021;-69
2022/11/26 03:57:04;;;;;;;119.35;37.95;;;;;;;6.83;100.00;101861.91;7397452;19;20019;-69
2022/11/26 03:59:33;;;;;;;127.50;37.90;;;;;;;6.82;100.00;101855.84;7399914;19;20024;-70
2022/11/26 04:02:01;;;;;;;125.43;38.28;;;;;;;6.83;100.00;101859.31;7397374;19;20023;-69
2022/11/26 04:04:30;;;;;;;127.93;37.72;;;;;;;6.83;100.00;101865.41;7398282;19;20429;-69
2022/11/26 04:06:58;;;;;;;121.50;38.75;;;;;;;6.84;100.00;101874.97;7397040;19;20019;-69
2022/11/26 04:09:29;;;;;;;126.78;38.85;;;;;;;6.83;100.00;101878.44;7399507;19;20024;-69
2022/11/26 04:11:58;;;;;;;120.30;38.95;;;;;;;6.83;100.00;101872.34;7397745;19;20026;-70
2022/11/26 04:14:26;;;;;;;109.05;37.47;;;;;;;6.82;100.00;101879.31;7399478;19;20026;-70
2022/11/26 04:16:55;;;;;;;117.07;39.28;;;;;;;6.82;100.00;101881.03;7399258;19;20055;-69
2022/11/26 04:19:23;;;;;;;120.57;38.63;;;;;;;6.81;100.00;101887.09;7396653;19;20544;-69
2022/11/26 04:21:52;;;;;;;112.78;35.95;;;;;;;6.81;100.00;101887.09;7397029;19;20015;-69
2022/11/26 04:24:20;;;;;;;111.40;36.83;;;;;;;6.79;100.00;101894.06;7395610;19;20026;-69
2022/11/26 04:26:51;;;;;;;105.82;36.30;;;;;;;6.78;100.00;101893.16;7399288;19;20035;-70
2022/11/26 04:29:20;;;;;;;102.55;35.58;;;;;;;6.78;100.00;101890.56;7398638;19;20016;-69
2022/11/26 04:31:48;;;;;;;115.07;35.63;;;;;;;6.79;100.00;101891.44;7397136;19;20027;-69
2022/11/26 04:34:17;;;;;;;111.35;36.00;;;;;;;6.79;100.00;101897.53;7398749;19;20032;-69
2022/11/26 04:36:45;;;;;;;104.13;34.42;;;;;;;6.78;100.00;101902.72;7396364;19;20082;-69
2022/11/26 04:39:14;;;;;;;115.75;35.50;;;;;;;6.79;100.00;101904.50;7398533;19;20019;-70
2022/11/26 04:41:42;;;;;;;101.88;34.95;;;;;;;6.78;100.00;101906.19;7396375;19;20022;-70
2022/11/26 04:44:13;;;;;;;97.97;33.50;;;;;;;6.78;100.00;101923.59;7398330;19;20028;-70
2022/11/26 04:46:41;;;;;;;94.97;33.42;;;;;;;6.77;100.00;101919.22;7397934;19;20066;-70
2022/11/26 04:49:10;;;;;;;105.10;35.03;;;;;;;6.77;100.00;101924.44;7398107;19;20023;-70
2022/11/26 04:51:38;;;;;;;104.15;35.20;;;;;;;6.76;100.00;101931.41;7396048;19;20098;-70
2022/11/26 04:54:07;;;;;;;88.47;31.88;;;;;;;6.75;100.00;101940.09;7398070;19;20025;-70
2022/11/26 04:56:36;;;;;;;91.28;31.45;;;;;;;6.74;100.00;101946.16;7396364;19;20082;-70
2022/11/26 04:59:04;;;;;;;93.53;31.65;;;;;;;6.74;100.00;101950.50;7398034;19;20022;-70
2022/11/26 05:01:35;;;;;;;97.40;33.03;;;;;;;6.74;100.00;101943.53;7396191;19;20375;-70
2022/11/26 05:04:04;;;;;;;98.00;31.45;;;;;;;6.74;100.00;101955.72;7396665;19;20018;-70
2022/11/26 05:06:33;;;;;;;90.93;31.67;;;;;;;6.74;100.00;101958.34;7397457;19;20015;-70
2022/11/26 05:09:01;;;;;;;95.50;31.13;;;;;;;6.74;100.00;101955.72;7397619;19;20031;-70
2022/11/26 05:11:30;;;;;;;106.07;33.67;;;;;;;6.74;100.00;101963.53;7395895;19;20525;-70
2022/11/26 05:13:59;;;;;;;97.07;31.17;;;;;;;6.75;100.00;101971.38;7398277;19;20026;-70
2022/11/26 05:16:27;;;;;;;96.00;32.58;;;;;;;6.74;100.00;101968.75;7395644;19;20481;-70
2022/11/26 05:18:58;;;;;;;94.95;32.13;;;;;;;6.72;100.00;101973.06;7395397;19;20078;-70
2022/11/26 05:21:27;;;;;;;92.22;31.27;;;;;;;6.74;100.00;101979.19;7396228;19;20036;-70
2022/11/26 05:23:55;;;;;;;84.07;31.05;;;;;;;6.73;100.00;101982.66;7396949;19;20015;-70
2022/11/26 05:26:24;;;;;;;98.75;32.17;;;;;;;6.73;100.00;101985.25;7394931;19;20491;-69
2022/11/26 05:28:52;;;;;;;82.65;29.80;;;;;;;6.72;100.00;101997.41;7396818;19;20035;-69
2022/11/26 05:31:21;;;;;;;90.45;31.00;;;;;;;6.72;100.00;101993.94;7394532;19;20468;-69
2022/11/26 05:33:49;;;;;;;82.75;28.83;;;;;;;6.70;100.00;102009.56;7396502;19;20026;-69
2022/11/26 05:36:20;;;;;;;77.57;28.25;;;;;;;6.69;100.00;101993.03;7392903;19;20164;-69
2022/11/26 05:38:49;;;;;;;85.28;28.60;;;;;;;6.67;100.00;102010.41;7397012;19;20018;-69
2022/11/26 05:41:17;;;;;;;63.67;24.85;;;;;;;6.68;100.00;102008.66;7394672;19;20084;-69
2022/11/26 05:43:45;;;;;;;66.05;25.65;;;;;;;6.69;100.00;102008.66;7396145;19;20019;-69
2022/11/26 05:46:18;;;;;;;68.47;25.38;;;;;;;6.68;100.00;102011.25;7396279;19;20018;-69
2022/11/26 05:48:46;;;;;;;72.68;26.27;;;;;;;6.68;100.00;102000.84;7396725;19;20023;-69
2022/11/26 05:51:24;;;;;;;59.47;23.27;;;;;;;6.66;100.00;102007.75;7395005;19;20497;-69
2022/11/26 05:53:53;;;;;;;67.72;23.00;;;;;;;6.66;100.00;102026.00;7396637;19;20031;-69
2022/11/26 05:56:21;;;;;;;57.30;22.90;;;;;;;6.64;100.00;102018.16;7394380;19;20023;-69
2022/11/26 05:58:50;;;;;;;59.33;21.40;;;;;;;6.65;100.00;102019.06;7394438;19;20014;-69
2022/11/26 06:01:18;;;;;;;58.92;22.63;;;;;;;6.65;100.00;102027.75;7394579;19;20372;-69
2022/11/26 06:03:46;;;;;;;61.58;22.40;;;;;;;6.63;100.00;102028.56;7394892;19;20524;-70
2022/11/26 06:06:15;;;;;;;58.67;21.33;;;;;;;6.62;100.00;102032.03;7394747;19;20018;-70
2022/11/26 06:08:46;;;;;;;57.97;21.95;;;;;;;6.64;100.00;102036.41;7394170;19;20023;-70
2022/11/26 06:11:14;;;;;;;58.40;23.05;;;;;;;6.64;100.00;102039.03;7394817;19;20426;-70
2022/11/26 06:13:50;;;;;;;57.13;22.00;;;;;;;6.64;100.00;102040.78;7393764;19;20078;-69
2022/11/26 06:16:19;;;;;;;54.03;21.08;;;;;;;6.65;100.00;102045.13;7394609;19;20032;-69
2022/11/26 06:18:47;;;;;;;55.17;21.35;;;;;;;6.65;100.00;102048.63;7396126;19;20028;-70
2022/11/26 06:21:15;;;;;;;64.13;22.80;;;;;;;6.66;100.00;102052.09;7393944;19;20100;-70
2022/11/26 06:23:47;;;;;;;56.47;20.85;;;;;;;6.65;100.00;102052.97;7393269;19;20026;-70
2022/11/26 06:26:15;;;;;;;61.88;23.27;;;;;;;6.65;100.00;102063.41;7395305;19;20023;-70
2022/11/26 06:28:44;;;;;;;54.25;21.63;;;;;;;6.65;100.00;102064.25;7394812;19;20007;-70
2022/11/26 06:31:12;;;;;;;48.40;21.48;;;;;;;6.65;100.00;102069.47;7394162;19;20018;-70
2022/11/26 06:33:40;;;;;;;52.22;20.25;;;;;;;6.65;100.00;102066.00;7394293;19;20568;-70
2022/11/26 06:36:09;;;;;;;43.47;19.77;;;;;;;6.64;100.00;102078.16;7392521;19;20011;-70
2022/11/26 06:38:38;;;;;;;66.10;19.98;;;;;;;6.63;100.00;102079.00;7394490;19;20010;-70
2022/11/26 06:41:10;;;;;;;52.65;21.23;;;;;;;6.62;100.00;102076.38;7392882;19;20022;-69
2022/11/26 06:43:38;;;;;;;50.03;20.80;;;;;;;6.62;100.00;102081.59;7394694;19;20078;-69
2022/11/26 06:46:10;;;;;;;47.40;18.45;;;;;;;6.61;100.00;102083.31;7395089;19;20014;-70
2022/11/26 06:48:39;;;;;;;42.55;17.95;;;;;;;6.62;100.00;102094.63;7403168;19;20035;-69
2022/11/26 06:51:09;;;;;;;45.72;17.00;;;;;;;6.59;100.00;102082.41;7400769;19;20010;-69
2022/11/26 06:53:37;;;;;;;36.50;14.65;;;;;;;6.55;100.00;102085.84;7401991;19;20015;-70
2022/11/26 06:56:12;;;;;;;35.33;14.25;;;;;;;6.55;100.00;102096.25;7400727;19;20039;-70
2022/11/26 06:58:40;;;;;;;;;;;;;;;6.52;100.00;102093.59;7402548;19;20501;-70
2022/11/26 07:01:13;;;;;;;35.65;14.07;;;;;;;6.51;100.00;102102.28;7400138;19;19984;-70
2022/11/26 07:03:42;;;;;;;33.33;13.50;;;;;;;6.51;100.00;102103.16;7401733;19;20072;-69
2022/11/26 07:06:17;;;;;;;35.72;14.77;;;;;;;6.51;100.00;102107.50;7401668;19;20022;-70
2022/11/26 07:08:46;;;;;;;32.08;13.45;;;;;;;6.51;100.00;102115.31;7402115;19;20031;-69
2022/11/26 07:11:18;;;;;;;51.20;15.07;;;;;;;6.51;100.00;102120.53;7399966;19;20066;-69
2022/11/26 07:13:46;;;;;;;30.83;14.10;;;;;;;6.51;100.00;102128.34;7401792;19;20019;-69
2022/11/26 07:16:15;;;;;;;41.08;14.05;;;;;;;6.51;100.00;102123.16;7400286;19;20036;-69
2022/11/26 07:18:44;;;;;;;32.88;13.38;;;;;;;6.53;100.00;102129.25;7400895;19;20480;-70
2022/11/26 07:21:15;;;;;;;32.60;14.25;;;;;;;6.54;100.00;102132.75;7399302;19;20584;-70
2022/11/26 07:23:44;;;;;;;33.05;13.77;;;;;;;6.54;100.00;102123.19;7400751;19;20019;-69
2022/11/26 07:26:14;;;;;;;35.95;14.05;;;;;;;6.56;100.00;102131.03;7401165;19;20427;-71
2022/11/26 07:28:46;;;;;;;39.97;13.88;;;;;;;6.56;100.00;102129.31;7401311;19;20027;-70
2022/11/26 07:31:16;;;;;;;52.60;17.52;;;;;;;6.56;100.00;102131.03;7397725;19;20031;-69
2022/11/26 07:33:45;;;;;;;44.47;14.82;;;;;;;6.56;100.00;102131.91;7400345;19;20506;-69
2022/11/26 07:36:17;;;;;;;36.75;16.10;;;;;;;6.58;100.00;102137.16;7400287;19;20087;-69
2022/11/26 07:38:46;;;;;;;55.28;23.23;;;;;;;6.58;100.00;102143.22;7397698;19;20513;-69
2022/11/26 07:41:16;;;;;;;50.20;21.73;;;;;;;6.58;100.00;102140.63;7398895;19;20039;-69
2022/11/26 07:43:48;;;;;;;43.53;21.70;;;;;;;6.57;100.00;102146.72;7397477;19;20540;-69
2022/11/26 07:46:19;;;;;;;44.88;18.35;;;;;;;6.58;100.00;102145.84;7400030;19;20018;-68
2022/11/26 07:48:48;;;;;;;31.25;14.30;;;;;;;6.61;100.00;102155.44;7398211;19;20014;-69
2022/11/26 07:51:19;;;;;;;33.22;13.82;;;;;;;6.60;100.00;102149.38;7398920;19;20014;-68
2022/11/26 07:53:48;;;;;;;36.83;12.35;;;;;;;6.63;100.00;102146.81;7400247;19;20074;-68
2022/11/26 07:56:17;;;;;;;29.98;12.90;;;;;;;6.63;100.00;102148.53;7399119;19;20101;-69
2022/11/26 07:58:48;;;;;;;31.02;11.90;;;;;;;6.65;100.00;102158.16;7395427;19;20027;-69
2022/11/26 08:01:18;;;;;;;36.95;12.65;;;;;;;6.67;100.00;102160.78;7396822;19;20465;-69
2022/11/26 08:03:48;;;;;;;39.95;12.38;;;;;;;6.67;100.00;102161.66;7399740;19;20081;-69
2022/11/26 08:06:19;;;;;;;31.85;13.45;;;;;;;6.69;100.00;102164.31;7399461;19;20018;-69
2022/11/26 08:08:48;;;;;;;28.77;11.38;;;;;;;6.71;100.00;102166.94;7399372;19;20065;-70
2022/11/26 08:11:19;;;;;;;35.75;11.52;;;;;;;6.71;100.00;102172.13;7398174;19;20031;-70
2022/11/26 08:13:50;;;;;;;36.90;12.52;;;;;;;6.71;100.00;102177.34;7399768;19;20494;-70
2022/11/26 08:16:19;;;;;;;32.75;11.85;;;;;;;6.73;100.00;102175.66;7398109;19;20029;-69
2022/11/26 08:18:47;;;;;;;30.63;11.80;;;;;;;6.73;100.00;102179.13;7396865;19;20018;-70
2022/11/26 08:21:16;;;;;;;45.28;12.45;;;;;;;6.76;100.00;102178.31;7397337;19;20481;-69
2022/11/26 08:23:44;;;;;;;34.22;12.27;;;;;;;6.77;100.00;102188.75;7398704;19;20019;-70
2022/11/26 08:26:15;;;;;;;26.58;10.57;;;;;;;6.80;100.00;102187.97;7398778;19;20019;-69
2022/11/26 08:28:44;;;;;;;30.55;10.93;;;;;;;6.80;100.00;102182.75;7398798;19;20022;-69
2022/11/26 08:31:16;;;;;;;32.88;12.18;;;;;;;6.83;100.00;102188.00;7397089;19;20481;-69
2022/11/26 08:33:46;;;;;;;36.80;12.82;;;;;;;6.86;100.00;102188.03;7396974;19;20022;-70
2022/11/26 08:36:15;;;;;;;28.30;11.88;;;;;;;6.86;100.00;102193.25;7396293;19;20015;-69
2022/11/26 08:38:43;;;;;;;26.55;9.60;;;;;;;6.87;100.00;102191.56;7396376;19;20427;-70
2022/11/26 08:41:14;;;;;;;22.10;9.57;;;;;;;6.83;100.00;102182.78;7397224;19;20035;-70
2022/11/26 08:43:42;;;;;;;28.55;9.73;;;;;;;6.89;100.00;102201.16;7398539;19;20028;-70
2022/11/26 08:46:12;;;;;;;28.85;9.50;;;;;;;6.90;100.00;102208.13;7397747;19;20485;-69
2022/11/26 08:48:44;;;;;;;23.13;8.73;;;;;;;6.90;100.00;102202.94;7395490;19;20046;-70
2022/11/26 08:51:13;;;;;;;27.70;8.75;;;;;;;6.91;100.00;102215.09;7395278;19;20372;-69
2022/11/26 08:53:42;;;;;;;25.05;9.38;;;;;;;6.91;100.00;102209.00;7395773;19;20022;-70
2022/11/26 08:56:12;;;;;;;29.08;9.68;;;;;;;6.92;100.00;102213.38;7397269;19;20023;-70
2022/11/26 08:58:43;;;;;;;23.05;9.55;;;;;;;6.92;100.00;102211.63;7397453;19;20561;-70
2022/11/26 09:01:13;;;;;;;27.77;10.00;;;;;;;6.92;100.00;102216.84;7396154;19;20363;-69
2022/11/26 09:03:44;;;;;;;26.15;9.27;;;;;;;6.94;100.00;102224.72;7395209;19;20516;-69
2022/11/26 09:06:13;;;;;;;24.45;11.02;;;;;;;6.96;100.00;102230.84;7395977;19;20006;-69
2022/11/26 09:09:11;;;;;;;29.40;10.55;;;;;;;6.97;100.00;102227.38;7397358;19;20028;-69
2022/11/26 09:11:37;;;;;;;29.95;10.43;;;;;;;6.98;100.00;102234.38;7395556;19;20354;-68
2022/11/26 09:14:07;;;;;;;33.95;10.23;;;;;;;6.99;100.00;102239.59;7397514;19;20023;-68
2022/11/26 09:16:35;;;;;;;24.15;10.52;;;;;;;7.01;100.00;102239.63;7395048;19;20074;-69
2022/11/26 09:19:08;;;;;;;35.40;11.75;;;;;;;7.01;100.00;102240.53;7397032;19;20022;-69
2022/11/26 09:21:37;;;;;;;33.38;10.23;;;;;;;7.04;100.00;102244.00;7395444;19;20485;-70
2022/11/26 09:24:05;;;;;;;26.38;10.05;;;;;;;7.03;100.00;102245.75;7396408;19;20031;-70
2022/11/26 09:26:34;;;;;;;27.70;10.55;;;;;;;7.03;100.00;102250.97;7396719;19;20014;-70
2022/11/26 09:29:03;;;;;;;26.70;10.90;;;;;;;7.04;100.00;102251.84;7394343;19;20087;-70
2022/11/26 09:31:32;;;;;;;27.13;9.30;;;;;;;7.04;100.00;102255.34;7395424;19;20027;-70
2022/11/26 09:34:03;;;;;;;26.70;10.07;;;;;;;7.04;100.00;102259.66;7395590;19;20023;-69
2022/11/26 09:36:34;;;;;;;30.23;10.25;;;;;;;7.01;100.00;102260.50;7395225;19;20480;-69
2022/11/26 09:39:02;;;;;;;30.92;9.95;;;;;;;7.01;100.00;102258.78;7396340;19;20022;-70
2022/11/26 09:41:47;;;;;;;26.40;10.35;;;;;;;7.01;100.00;102263.09;7394829;19;20011;-70
2022/11/26 09:44:34;;;;;;;28.67;12.10;;;;;;;7.03;100.00;102263.13;7396511;19;20436;-70
2022/11/26 09:47:10;;;;;;;27.23;11.05;;;;;;;7.01;100.00;102265.72;7394960;19;20031;-69
2022/11/26 09:49:45;;;;;;;27.10;10.05;;;;;;;7.01;100.00;102274.44;7394880;19;20018;-68
2022/11/26 09:52:20;;;;;;;30.92;9.85;;;;;;;7.00;100.00;102267.47;7394391;19;20022;-68
2022/11/26 09:54:49;;;;;;;28.35;9.45;;;;;;;7.01;100.00;102266.63;7396134;19;20022;-68
2022/11/26 09:57:25;;;;;;;29.50;10.45;;;;;;;7.00;100.00;102267.47;7395350;19;20096;-70
2022/11/26 09:59:56;;;;;;;26.55;11.43;;;;;;;7.03;100.00;102278.78;7394978;19;20014;-68
2022/11/26 10:02:25;;;;;;;27.88;10.90;;;;;;;7.03;100.00;102279.69;7393717;19;20035;-69
2022/11/26 10:04:54;;;;;;;18.77;8.05;;;;;;;7.03;100.00;102290.13;7393406;19;20011;-69
2022/11/26 10:07:46;;;;;;;24.00;7.75;;;;;;;6.99;100.00;102283.09;7393559;19;20015;-70
2022/11/26 10:10:22;;;;;;;21.73;8.50;;;;;;;6.99;99.75;102290.94;7393291;19;20019;-69
2022/11/26 10:13:01;;;;;;;21.58;8.20;;;;;;;6.99;100.00;102283.97;7395880;19;20031;-69
2022/11/26 10:15:36;;;;;;;24.85;8.00;;;;;;;7.01;99.82;102283.97;7395740;19;20015;-69
2022/11/26 10:18:18;;;;;;;22.15;7.95;;;;;;;7.00;99.65;102285.72;7393648;19;20070;-69
2022/11/26 10:21:05;;;;;;;28.92;9.15;;;;;;;6.99;99.07;102283.09;7393358;19;20022;-69
2022/11/26 10:23:44;;;;;;;26.70;9.63;;;;;;;6.99;100.00;102289.19;7393796;19;20019;-69
2022/11/26 10:26:24;;;;;;;27.00;10.30;;;;;;;7.01;100.00;102289.19;7394754;19;20484;-69
2022/11/26 10:29:07;;;;;;;26.45;11.23;;;;;;;7.01;100.00;102292.72;7395446;19;20022;-69
2022/11/26 10:31:36;;;;;;;24.40;8.15;;;;;;;7.02;99.81;102298.78;7393524;19;20506;-69
2022/11/26 10:34:13;;;;;;;29.48;9.98;;;;;;;7.03;100.00;102299.66;7392751;19;20424;-69
2022/11/26 10:36:45;;;;;;;30.85;10.55;;;;;;;7.03;100.00;102300.56;7394175;19;20374;-69
2022/11/26 10:39:19;;;;;;;35.53;13.23;;;;;;;7.04;100.00;102304.94;7395127;19;20022;-70
2022/11/26 10:41:48;;;;;;;30.42;10.23;;;;;;;7.05;99.81;102304.09;7392960;19;20019;-69
2022/11/26 10:44:35;;;;;;;24.95;8.38;;;;;;;7.03;99.13;102310.09;7393685;19;20022;-69
2022/11/26 10:47:22;;;;;;;19.75;7.72;;;;;;;7.00;98.85;102311.81;7392436;19;20102;-69
2022/11/26 10:49:51;;;;;;;22.52;8.77;;;;;;;6.98;98.95;102313.50;7394081;19;20499;-69
2022/11/26 10:52:23;;;;;;;38.15;11.35;;;;;;;6.97;99.14;102316.97;7392131;19;20082;-70
2022/11/26 10:55:18;;;;;;;36.42;12.02;;;;;;;6.97;99.12;102321.31;7394734;19;20026;-70
2022/11/26 10:57:52;;;;;;;39.17;17.08;;;;;;;6.97;100.00;102318.72;7391848;19;20493;-69
2022/11/26 11:00:37;;;;;;;33.63;12.30;;;;;;;6.97;100.00;102322.19;7391686;19;20015;-69
2022/11/26 11:03:13;;;;;;;26.33;10.57;;;;;;;6.99;98.90;102322.25;7394709;19;20022;-69
2022/11/26 11:05:43;;;;;;;27.88;10.93;;;;;;;6.99;100.00;102323.09;7391711;19;20014;-69
2022/11/26 11:08:15;;;;;;;26.98;8.20;;;;;;;7.00;100.00;102326.59;7391830;19;20102;-69
2022/11/26 11:10:57;;;;;;;20.52;7.97;;;;;;;6.99;99.25;102327.47;7393176;19;20376;-69
2022/11/26 11:13:40;;;;;;;26.88;10.65;;;;;;;7.01;99.73;102328.34;7392131;19;20035;-69
2022/11/26 11:16:10;;;;;;;28.73;12.05;;;;;;;7.01;100.00;102325.75;7393974;19;20023;-70
2022/11/26 11:18:39;;;;;;;27.88;10.18;;;;;;;7.04;99.83;102332.75;7391654;19;20036;-69
2022/11/26 11:21:09;;;;;;;25.98;10.52;;;;;;;7.05;100.00;102330.19;7392435;19;20022;-69
2022/11/26 11:23:39;;;;;;;21.63;8.70;;;;;;;7.05;99.08;102334.50;7391132;19;20018;-69
2022/11/26 11:26:17;;;;;;;24.83;7.10;;;;;;;7.05;98.28;102334.50;7393184;19;20078;-69
2022/11/26 11:28:49;;;;;;;22.05;8.02;;;;;;;7.03;99.26;102336.19;7393814;19;20018;-70